Time;durP1;ratioP1;P1;durP2;ratioP2;P2;SDS_P1;SDS_P2;PMS_P1;PMS_P2;Temp;Humidity;BMP_temperature;BMP_pressure;BME280_temperature;BME280_humidity;BME280_pressure;Samples;Min_cycle;Max_cycle;Signal;HPM_P1;HPM_P2
2021/08/03 00:00:37;;;;;;;;;8.00;7.75;;;;;;;;4980347;28;8818;-82
2021/08/03 00:03:08;;;;;;;;;7.50;5.50;;;;;;;;4981541;28;8875;-82
2021/08/03 00:05:40;;;;;;;;;7.00;7.00;;;;;;;;4980003;28;8888;-81
2021/08/03 00:08:15;;;;;;;;;7.75;7.75;;;;;;;;4981128;28;8848;-81
2021/08/03 00:10:43;;;;;;;;;9.75;8.00;;;;;;;;4981877;28;8982;-82
2021/08/03 00:13:10;;;;;;;;;8.00;7.50;;;;;;;;4981695;28;8899;-82
2021/08/03 00:15:37;;;;;;;;;7.50;7.50;;;;;;;;4985689;28;8867;-82
2021/08/03 00:18:04;;;;;;;;;7.50;7.50;;;;;;;;4982081;28;9621;-82
2021/08/03 00:20:32;;;;;;;;;7.25;6.75;;;;;;;;4980681;28;8867;-82
2021/08/03 00:23:02;;;;;;;;;8.00;8.00;;;;;;;;4983087;28;9014;-82
2021/08/03 00:25:30;;;;;;;;;6.25;6.25;;;;;;;;4968315;28;8901;-82
2021/08/03 00:27:58;;;;;;;;;7.00;7.00;;;;;;;;4981994;28;8892;-82
2021/08/03 00:30:26;;;;;;;;;10.50;9.75;;;;;;;;4979487;28;9621;-81
2021/08/03 00:32:54;;;;;;;;;6.25;6.25;;;;;;;;4973107;28;9673;-82
2021/08/03 00:35:22;;;;;;;;;6.00;6.00;;;;;;;;4970921;28;8856;-81
2021/08/03 00:37:49;;;;;;;;;8.25;7.25;;;;;;;;4981059;28;8904;-82
2021/08/03 00:40:19;;;;;;;;;10.50;8.50;;;;;;;;4982707;28;8894;-81
2021/08/03 00:42:46;;;;;;;;;6.75;6.75;;;;;;;;4980252;28;8993;-81
2021/08/03 00:45:14;;;;;;;;;8.25;7.25;;;;;;;;4981976;28;8875;-81
2021/08/03 00:47:41;;;;;;;;;9.25;8.00;;;;;;;;4980383;28;8901;-81
2021/08/03 00:50:09;;;;;;;;;7.25;7.25;;;;;;;;4981512;28;8895;-82
2021/08/03 00:52:36;;;;;;;;;8.75;8.75;;;;;;;;4981514;28;8887;-82
2021/08/03 00:55:04;;;;;;;;;7.50;7.50;;;;;;;;4981000;28;9029;-81
2021/08/03 00:57:33;;;;;;;;;7.75;7.75;;;;;;;;4993151;28;8885;-82
2021/08/03 01:00:00;;;;;;;;;7.00;7.00;;;;;;;;4980303;28;9668;-81
2021/08/03 01:02:28;;;;;;;;;8.50;7.25;;;;;;;;4980954;28;8848;-82
2021/08/03 01:04:55;;;;;;;;;8.75;8.75;;;;;;;;4981020;28;8871;-82
2021/08/03 01:07:28;;;;;;;;;8.50;8.50;;;;;;;;4981792;28;8899;-81
2021/08/03 01:10:07;;;;;;;;;9.00;9.00;;;;;;;;5051194;28;8856;-82
2021/08/03 01:12:46;;;;;;;;;10.00;8.00;;;;;;;;4983805;28;8859;-81
2021/08/03 01:15:17;;;;;;;;;7.00;7.00;;;;;;;;4999732;28;8889;-81
2021/08/03 01:17:49;;;;;;;;;7.50;7.25;;;;;;;;4983708;28;8867;-82
2021/08/03 01:20:24;;;;;;;;;8.75;8.75;;;;;;;;4984162;28;9735;-82
2021/08/03 01:23:17;;;;;;;;;8.75;8.75;;;;;;;;4977344;28;8895;-81
2021/08/03 01:25:55;;;;;;;;;8.00;8.00;;;;;;;;4983100;28;8874;-82
2021/08/03 01:28:25;;;;;;;;;13.50;12.00;;;;;;;;4984407;28;8871;-82
2021/08/03 01:30:55;;;;;;;;;8.00;8.00;;;;;;;;4991926;28;8797;-82
2021/08/03 01:33:25;;;;;;;;;10.00;9.75;;;;;;;;4984035;28;8855;-82
2021/08/03 01:35:55;;;;;;;;;8.25;8.25;;;;;;;;4983517;28;8882;-81
2021/08/03 01:38:23;;;;;;;;;10.00;8.75;;;;;;;;4984700;28;8887;-82
2021/08/03 01:40:53;;;;;;;;;9.00;9.00;;;;;;;;4983264;28;8925;-82
2021/08/03 01:43:21;;;;;;;;;11.75;10.00;;;;;;;;4983249;28;8910;-82
2021/08/03 01:45:53;;;;;;;;;12.75;12.50;;;;;;;;5051327;28;8896;-82
2021/08/03 01:48:20;;;;;;;;;14.75;11.25;;;;;;;;4983364;28;8875;-82
2021/08/03 01:50:49;;;;;;;;;10.50;10.00;;;;;;;;4983509;28;8990;-80
2021/08/03 01:53:18;;;;;;;;;11.25;10.00;;;;;;;;4984257;28;8960;-82
2021/08/03 01:55:46;;;;;;;;;9.50;8.75;;;;;;;;4983321;28;8917;-81
2021/08/03 01:58:14;;;;;;;;;11.00;10.00;;;;;;;;4984158;28;8875;-82
2021/08/03 02:00:43;;;;;;;;;11.25;11.25;;;;;;;;4981758;28;8838;-82
2021/08/03 02:03:12;;;;;;;;;11.25;9.75;;;;;;;;4984316;28;8894;-80
2021/08/03 02:05:40;;;;;;;;;8.75;8.75;;;;;;;;4983917;28;9625;-80
2021/08/03 02:08:08;;;;;;;;;10.25;8.00;;;;;;;;4984259;28;8905;-80
2021/08/03 02:10:36;;;;;;;;;11.50;10.75;;;;;;;;5049497;28;9747;-79
2021/08/03 02:13:04;;;;;;;;;8.00;8.00;;;;;;;;4983624;28;8968;-79
2021/08/03 02:15:32;;;;;;;;;6.25;6.25;;;;;;;;4983350;28;8875;-79
2021/08/03 02:18:00;;;;;;;;;9.75;9.75;;;;;;;;4983124;28;8891;-79
2021/08/03 02:20:28;;;;;;;;;9.00;9.00;;;;;;;;4982401;28;8941;-79
2021/08/03 02:22:56;;;;;;;;;8.25;8.25;;;;;;;;5040782;28;8908;-79
2021/08/03 02:25:23;;;;;;;;;7.25;6.00;;;;;;;;4983637;28;8929;-79
2021/08/03 02:27:51;;;;;;;;;6.00;6.00;;;;;;;;4983437;28;8879;-79
2021/08/03 02:30:19;;;;;;;;;7.50;7.50;;;;;;;;4982200;28;8883;-79
2021/08/03 02:32:57;;;;;;;;;5.50;5.50;;;;;;;;4983255;28;8863;-79
2021/08/03 02:35:29;;;;;;;;;5.25;3.75;;;;;;;;4981884;28;9012;-80
2021/08/03 02:38:01;;;;;;;;;6.75;6.75;;;;;;;;4986770;28;8895;-81
2021/08/03 02:40:29;;;;;;;;;6.00;6.00;;;;;;;;4988230;28;8872;-80
2021/08/03 02:42:56;;;;;;;;;6.00;6.00;;;;;;;;4982898;28;8859;-79
2021/08/03 02:45:24;;;;;;;;;6.25;6.25;;;;;;;;5050223;28;8871;-79
2021/08/03 02:47:57;;;;;;;;;4.50;4.50;;;;;;;;4983540;28;8968;-79
2021/08/03 02:50:27;;;;;;;;;8.25;8.25;;;;;;;;5048294;28;8860;-79
2021/08/03 02:52:57;;;;;;;;;5.25;5.25;;;;;;;;4982155;28;8869;-80
2021/08/03 02:55:27;;;;;;;;;9.25;7.75;;;;;;;;4983683;28;8901;-80
2021/08/03 02:58:02;;;;;;;;;5.00;5.00;;;;;;;;4982377;28;8871;-80
2021/08/03 03:00:33;;;;;;;;;7.25;6.75;;;;;;;;4981786;28;8804;-80
2021/08/03 03:03:03;;;;;;;;;7.00;7.00;;;;;;;;4983796;28;9892;-79
2021/08/03 03:05:31;;;;;;;;;7.25;5.50;;;;;;;;4981090;28;8875;-79
2021/08/03 03:08:05;;;;;;;;;9.00;6.00;;;;;;;;4983216;28;8875;-79
2021/08/03 03:10:34;;;;;;;;;5.25;5.25;;;;;;;;4980442;28;8871;-79
2021/08/03 03:13:06;;;;;;;;;8.00;5.25;;;;;;;;4983469;28;9384;-79
2021/08/03 03:15:33;;;;;;;;;5.00;5.00;;;;;;;;4981999;28;8879;-79
2021/08/03 03:18:02;;;;;;;;;5.25;5.25;;;;;;;;4983031;28;8891;-79
2021/08/03 03:20:30;;;;;;;;;6.00;6.00;;;;;;;;4982404;28;8853;-79
2021/08/03 03:22:58;;;;;;;;;8.00;6.00;;;;;;;;4981487;28;8903;-79
2021/08/03 03:25:28;;;;;;;;;8.00;6.25;;;;;;;;5048621;28;8867;-79
2021/08/03 03:27:59;;;;;;;;;7.00;7.00;;;;;;;;4981592;28;8879;-79
2021/08/03 03:30:27;;;;;;;;;7.25;7.25;;;;;;;;4981953;28;8783;-80
2021/08/03 03:33:01;;;;;;;;;5.00;5.00;;;;;;;;4982042;28;9515;-78
2021/08/03 03:35:29;;;;;;;;;8.50;6.25;;;;;;;;4981684;28;9677;-79
2021/08/03 03:37:57;;;;;;;;;8.25;8.25;;;;;;;;4982576;28;8913;-79
2021/08/03 03:40:26;;;;;;;;;5.25;5.25;;;;;;;;4980343;28;8864;-80
2021/08/03 03:42:56;;;;;;;;;10.00;7.25;;;;;;;;4982243;28;8915;-80
2021/08/03 03:45:24;;;;;;;;;7.00;7.00;;;;;;;;4981266;28;8871;-79
2021/08/03 03:47:57;;;;;;;;;8.25;8.25;;;;;;;;4983005;28;8871;-80
2021/08/03 03:50:32;;;;;;;;;7.00;7.00;;;;;;;;5047852;28;8910;-79
2021/08/03 03:53:06;;;;;;;;;6.75;6.75;;;;;;;;4981254;28;8876;-79
2021/08/03 03:55:35;;;;;;;;;6.50;6.50;;;;;;;;4982550;28;8875;-79
2021/08/03 03:58:03;;;;;;;;;8.25;8.25;;;;;;;;4980292;28;8891;-80
2021/08/03 04:00:35;;;;;;;;;7.00;7.00;;;;;;;;4980109;28;8855;-80
2021/08/03 04:03:05;;;;;;;;;6.75;6.50;;;;;;;;4981983;28;8881;-81
2021/08/03 04:05:34;;;;;;;;;7.50;6.00;;;;;;;;4981216;28;8863;-78
2021/08/03 04:08:02;;;;;;;;;9.25;9.25;;;;;;;;4979059;28;8851;-77
2021/08/03 04:10:33;;;;;;;;;7.00;7.00;;;;;;;;4979925;28;8879;-78
2021/08/03 04:13:02;;;;;;;;;7.00;7.00;;;;;;;;5044418;28;8947;-81
2021/08/03 04:15:31;;;;;;;;;10.75;9.00;;;;;;;;4983319;28;8860;-80
2021/08/03 04:17:59;;;;;;;;;10.50;10.50;;;;;;;;4981156;28;9582;-81
2021/08/03 04:20:27;;;;;;;;;8.50;8.50;;;;;;;;4982837;28;8840;-82
2021/08/03 04:22:54;;;;;;;;;8.25;8.25;;;;;;;;4986951;28;8875;-82
2021/08/03 04:25:22;;;;;;;;;7.75;7.75;;;;;;;;4981238;28;8844;-81
2021/08/03 04:27:49;;;;;;;;;11.25;9.00;;;;;;;;4980379;28;8890;-80
2021/08/03 04:30:18;;;;;;;;;8.00;8.00;;;;;;;;4980827;28;8981;-79
2021/08/03 04:32:45;;;;;;;;;10.00;10.00;;;;;;;;4979714;28;8875;-76
2021/08/03 04:35:13;;;;;;;;;7.00;7.00;;;;;;;;4981103;28;8998;-80
2021/08/03 04:37:41;;;;;;;;;10.00;10.00;;;;;;;;4982755;28;8883;-81
2021/08/03 04:40:10;;;;;;;;;6.75;6.50;;;;;;;;4980794;28;8887;-80
2021/08/03 04:42:38;;;;;;;;;7.50;7.50;;;;;;;;4980972;28;9606;-80
2021/08/03 04:45:07;;;;;;;;;9.75;9.25;;;;;;;;5034002;28;8891;-80
2021/08/03 04:47:41;;;;;;;;;13.00;11.25;;;;;;;;5052575;28;8893;-79
2021/08/03 04:50:11;;;;;;;;;8.75;8.75;;;;;;;;4979231;28;8894;-80
2021/08/03 04:52:38;;;;;;;;;8.50;8.50;;;;;;;;4982135;28;8863;-80
2021/08/03 04:55:07;;;;;;;;;7.75;7.75;;;;;;;;4984331;28;8913;-79
2021/08/03 04:57:34;;;;;;;;;11.50;10.50;;;;;;;;4984351;28;8899;-79
2021/08/03 05:00:01;;;;;;;;;11.75;10.25;;;;;;;;4984548;28;8936;-79
2021/08/03 05:02:29;;;;;;;;;13.50;11.00;;;;;;;;4982843;28;8816;-80
2021/08/03 05:04:57;;;;;;;;;11.75;11.75;;;;;;;;4983900;28;8890;-79
2021/08/03 05:07:25;;;;;;;;;12.75;12.75;;;;;;;;4983133;28;8875;-83
2021/08/03 05:09:52;;;;;;;;;14.25;12.50;;;;;;;;4984273;28;8896;-83
2021/08/03 05:12:19;;;;;;;;;12.50;9.25;;;;;;;;4984639;28;8901;-85
2021/08/03 05:14:47;;;;;;;;;11.00;11.00;;;;;;;;4983761;28;8868;-82
2021/08/03 05:17:14;;;;;;;;;11.00;7.75;;;;;;;;4982535;28;8860;-81
2021/08/03 05:19:41;;;;;;;;;13.50;13.00;;;;;;;;4983749;28;8986;-82
2021/08/03 05:22:10;;;;;;;;;9.75;9.75;;;;;;;;4983486;28;8973;-81
2021/08/03 05:24:37;;;;;;;;;11.25;11.25;;;;;;;;4982737;28;8871;-87
2021/08/03 05:27:10;;;;;;;;;13.25;12.00;;;;;;;;4984350;28;9680;-85
2021/08/03 05:29:37;;;;;;;;;14.25;12.75;;;;;;;;4986917;28;8874;-87
2021/08/03 05:34:46;;;;;;;;;13.75;11.50;;;;;;;;4985597;28;8884;-87
2021/08/03 05:37:15;;;;;;;;;10.00;10.00;;;;;;;;4983604;28;8879;-88
2021/08/03 05:39:43;;;;;;;;;7.75;7.75;;;;;;;;4985341;28;8892;-84
2021/08/03 05:42:10;;;;;;;;;11.75;11.75;;;;;;;;5054273;28;8876;-87
2021/08/03 05:44:37;;;;;;;;;9.75;9.75;;;;;;;;4990739;28;8883;-86
2021/08/03 05:47:05;;;;;;;;;11.25;11.25;;;;;;;;4987340;28;8879;-92
2021/08/03 05:49:32;;;;;;;;;11.50;11.50;;;;;;;;5036974;28;8942;-88
2021/08/03 05:52:00;;;;;;;;;9.00;9.00;;;;;;;;4983837;28;8844;-84
2021/08/03 05:54:29;;;;;;;;;8.25;8.00;;;;;;;;4978207;28;8877;-81
2021/08/03 05:56:56;;;;;;;;;8.75;8.75;;;;;;;;4984967;28;8882;-86
2021/08/03 05:59:23;;;;;;;;;9.50;9.50;;;;;;;;4982745;28;8929;-81
2021/08/03 06:01:51;;;;;;;;;14.75;8.50;;;;;;;;4981208;28;8978;-85
2021/08/03 06:04:18;;;;;;;;;10.00;10.00;;;;;;;;5050153;28;8891;-81
2021/08/03 06:06:47;;;;;;;;;5.25;5.25;;;;;;;;5001050;28;8913;-84
2021/08/03 06:09:17;;;;;;;;;10.25;8.25;;;;;;;;5034875;28;8879;-85
2021/08/03 06:11:48;;;;;;;;;4.50;4.50;;;;;;;;4981682;28;9018;-84
2021/08/03 06:14:21;;;;;;;;;9.00;9.00;;;;;;;;4987728;28;8880;-89
2021/08/03 06:16:56;;;;;;;;;9.00;9.00;;;;;;;;4982966;28;8867;-92
2021/08/03 06:19:24;;;;;;;;;10.50;9.00;;;;;;;;5051979;28;8891;-91
2021/08/03 06:21:52;;;;;;;;;5.00;5.00;;;;;;;;5048696;28;8922;-85
2021/08/03 06:24:21;;;;;;;;;6.25;6.25;;;;;;;;4978846;28;8864;-87
2021/08/03 06:26:50;;;;;;;;;7.50;7.25;;;;;;;;4983813;28;8836;-85
2021/08/03 06:29:19;;;;;;;;;8.75;8.25;;;;;;;;5064299;28;8867;-85
2021/08/03 06:31:46;;;;;;;;;6.75;6.75;;;;;;;;4984192;28;8835;-84
2021/08/03 06:34:14;;;;;;;;;7.25;7.00;;;;;;;;5031639;28;8883;-84
2021/08/03 06:36:41;;;;;;;;;5.00;5.00;;;;;;;;4987023;28;8918;-86
2021/08/03 06:39:09;;;;;;;;;8.50;7.25;;;;;;;;5047954;28;8994;-85
2021/08/03 06:41:39;;;;;;;;;7.00;7.00;;;;;;;;4981496;28;9667;-86
2021/08/03 06:44:16;;;;;;;;;7.00;7.00;;;;;;;;4979944;28;8889;-86
2021/08/03 06:46:46;;;;;;;;;5.50;5.50;;;;;;;;4983996;28;8883;-85
2021/08/03 06:49:15;;;;;;;;;6.00;6.00;;;;;;;;4984700;28;8871;-85
2021/08/03 06:51:43;;;;;;;;;7.00;5.75;;;;;;;;4983100;28;8910;-87
2021/08/03 06:54:12;;;;;;;;;8.25;6.50;;;;;;;;4980430;28;9379;-87
2021/08/03 06:56:46;;;;;;;;;6.00;6.00;;;;;;;;4980290;28;8884;-88
2021/08/03 06:59:18;;;;;;;;;8.50;8.25;;;;;;;;4984247;28;8875;-85
2021/08/03 07:01:49;;;;;;;;;7.00;7.00;;;;;;;;4983314;28;8816;-86
2021/08/03 07:04:21;;;;;;;;;6.75;5.00;;;;;;;;4982987;28;8944;-86
2021/08/03 07:06:49;;;;;;;;;6.00;6.00;;;;;;;;4983190;28;8887;-87
2021/08/03 07:09:17;;;;;;;;;5.50;5.00;;;;;;;;4983178;28;8859;-86
2021/08/03 07:11:44;;;;;;;;;7.00;7.00;;;;;;;;4985161;28;8902;-86
2021/08/03 07:14:14;;;;;;;;;7.75;6.75;;;;;;;;4983170;28;8940;-87
2021/08/03 07:16:42;;;;;;;;;9.50;7.75;;;;;;;;4982580;28;8895;-86
2021/08/03 07:19:11;;;;;;;;;4.00;4.00;;;;;;;;4982680;28;8855;-86
2021/08/03 07:21:39;;;;;;;;;12.00;10.00;;;;;;;;5046032;28;9616;-86
2021/08/03 07:24:14;;;;;;;;;8.00;8.00;;;;;;;;4981583;28;8897;-84
2021/08/03 07:26:41;;;;;;;;;10.75;10.75;;;;;;;;4976998;28;8867;-85
2021/08/03 07:29:08;;;;;;;;;11.75;9.00;;;;;;;;4982646;28;9002;-85
2021/08/03 07:31:37;;;;;;;;;10.75;8.00;;;;;;;;4981272;28;8900;-86
2021/08/03 07:34:06;;;;;;;;;8.00;8.00;;;;;;;;4979647;28;9716;-87
2021/08/03 07:36:34;;;;;;;;;9.25;8.00;;;;;;;;4983638;28;8848;-86
2021/08/03 07:39:04;;;;;;;;;9.50;9.50;;;;;;;;4981955;28;8898;-86
2021/08/03 07:41:32;;;;;;;;;7.50;7.50;;;;;;;;4983807;28;8884;-88
2021/08/03 07:43:59;;;;;;;;;9.75;8.50;;;;;;;;4982438;28;8922;-89
2021/08/03 07:46:27;;;;;;;;;8.00;8.00;;;;;;;;4983823;28;8986;-87
2021/08/03 07:48:56;;;;;;;;;6.75;6.75;;;;;;;;4983792;28;8885;-89
2021/08/03 07:51:24;;;;;;;;;8.25;8.25;;;;;;;;4970447;28;8871;-88
2021/08/03 07:53:51;;;;;;;;;7.00;7.00;;;;;;;;4983779;28;9002;-86
2021/08/03 07:56:20;;;;;;;;;7.75;7.75;;;;;;;;4969781;28;8892;-89
2021/08/03 07:58:48;;;;;;;;;9.50;9.50;;;;;;;;4983076;28;8906;-87
2021/08/03 08:01:17;;;;;;;;;10.50;8.00;;;;;;;;4970251;28;8833;-88
2021/08/03 08:03:45;;;;;;;;;8.00;8.00;;;;;;;;4983978;28;8879;-87
2021/08/03 08:06:14;;;;;;;;;7.00;7.00;;;;;;;;4982641;28;8968;-89
2021/08/03 08:08:42;;;;;;;;;6.00;5.25;;;;;;;;5050605;28;8879;-87
2021/08/03 08:11:09;;;;;;;;;6.25;6.25;;;;;;;;4983457;28;8879;-88
2021/08/03 08:13:36;;;;;;;;;8.50;8.50;;;;;;;;4983516;28;8895;-87
2021/08/03 08:16:04;;;;;;;;;6.00;6.00;;;;;;;;4983151;28;8868;-88
2021/08/03 08:18:31;;;;;;;;;7.25;7.00;;;;;;;;4978735;28;8868;-88
2021/08/03 08:20:59;;;;;;;;;9.25;7.50;;;;;;;;4982977;28;9646;-89
2021/08/03 08:23:27;;;;;;;;;7.50;6.25;;;;;;;;4982449;28;8907;-86
2021/08/03 08:25:55;;;;;;;;;8.00;8.00;;;;;;;;4982800;28;8917;-83
2021/08/03 08:28:22;;;;;;;;;7.00;7.00;;;;;;;;4982430;28;8901;-83
2021/08/03 08:30:50;;;;;;;;;7.75;7.75;;;;;;;;4981981;28;8826;-86
2021/08/03 08:33:17;;;;;;;;;6.00;6.00;;;;;;;;4983593;28;8863;-86
2021/08/03 08:35:45;;;;;;;;;8.25;8.25;;;;;;;;5049641;28;8895;-88
2021/08/03 08:38:12;;;;;;;;;10.75;10.75;;;;;;;;4983877;28;8876;-86
2021/08/03 08:40:42;;;;;;;;;8.00;8.00;;;;;;;;4973408;28;8900;-84
2021/08/03 08:43:11;;;;;;;;;10.80;7.00;;;;;;;;4984315;28;8879;-83
2021/08/03 08:45:41;;;;;;;;;10.20;8.20;;;;;;;;4982381;28;9002;-84
2021/08/03 08:48:11;;;;;;;;;11.80;9.00;;;;;;;;5048258;28;8864;-85
2021/08/03 08:50:39;;;;;;;;;9.00;9.00;;;;;;;;4982921;28;8872;-86
2021/08/03 08:53:06;;;;;;;;;6.00;6.00;;;;;;;;4987393;28;8871;-88
2021/08/03 08:55:35;;;;;;;;;7.40;7.40;;;;;;;;4983285;28;8997;-89
2021/08/03 08:58:04;;;;;;;;;7.00;7.00;;;;;;;;4982064;28;9318;-88
2021/08/03 09:00:32;;;;;;;;;8.80;8.00;;;;;;;;4982284;28;8795;-89
2021/08/03 09:02:59;;;;;;;;;11.00;8.60;;;;;;;;4982522;28;8868;-86
2021/08/03 09:05:32;;;;;;;;;10.00;10.00;;;;;;;;4983048;28;8944;-87
2021/08/03 09:08:01;;;;;;;;;11.20;9.40;;;;;;;;4982258;28;8869;-88
2021/08/03 09:10:30;;;;;;;;;11.40;10.00;;;;;;;;4994291;28;8883;-89
2021/08/03 09:13:03;;;;;;;;;7.40;7.00;;;;;;;;4982734;28;8886;-86
2021/08/03 09:15:31;;;;;;;;;6.80;6.80;;;;;;;;4981163;28;8905;-88
2021/08/03 09:18:16;;;;;;;;;9.00;9.00;;;;;;;;4983778;28;8883;-88
2021/08/03 09:20:44;;;;;;;;;9.00;7.20;;;;;;;;4982334;28;8890;-88
2021/08/03 09:23:12;;;;;;;;;9.00;7.80;;;;;;;;4981689;28;8884;-88
2021/08/03 09:25:40;;;;;;;;;8.00;8.00;;;;;;;;4983052;28;8879;-85
2021/08/03 09:28:09;;;;;;;;;6.80;6.80;;;;;;;;4980477;28;9673;-87
2021/08/03 09:30:38;;;;;;;;;8.00;8.00;;;;;;;;5042852;28;8811;-85
2021/08/03 09:33:06;;;;;;;;;8.00;8.00;;;;;;;;4986556;28;8892;-86
2021/08/03 09:35:35;;;;;;;;;3.80;3.80;;;;;;;;4986099;28;9038;-87
2021/08/03 09:38:02;;;;;;;;;6.60;6.60;;;;;;;;4987434;28;8855;-86
2021/08/03 09:40:31;;;;;;;;;6.60;6.60;;;;;;;;4988339;28;8956;-89
2021/08/03 09:43:04;;;;;;;;;4.20;4.20;;;;;;;;4989423;28;8930;-88
2021/08/03 09:45:34;;;;;;;;;6.20;6.20;;;;;;;;5054553;28;8900;-89
2021/08/03 09:48:10;;;;;;;;;5.00;5.00;;;;;;;;5044926;28;8884;-86
2021/08/03 09:50:56;;;;;;;;;4.20;4.20;;;;;;;;4989367;28;8880;-86
2021/08/03 09:53:54;;;;;;;;;6.00;6.00;;;;;;;;4987063;28;8902;-87
2021/08/03 09:56:35;;;;;;;;;5.40;5.40;;;;;;;;5007409;28;8866;-89
2021/08/03 09:59:03;;;;;;;;;6.60;5.00;;;;;;;;4987883;28;8914;-89
2021/08/03 10:01:34;;;;;;;;;8.00;6.40;;;;;;;;5051690;28;9693;-88
2021/08/03 10:04:03;;;;;;;;;5.60;5.60;;;;;;;;4986984;28;8851;-88
2021/08/03 10:06:32;;;;;;;;;5.80;5.80;;;;;;;;5052540;28;8893;-89
2021/08/03 10:09:00;;;;;;;;;6.00;4.60;;;;;;;;4986531;28;8934;-89
2021/08/03 10:11:28;;;;;;;;;6.20;6.00;;;;;;;;4974757;28;8911;-88
2021/08/03 10:13:56;;;;;;;;;5.00;5.00;;;;;;;;4988186;28;9614;-85
2021/08/03 10:16:25;;;;;;;;;4.00;4.00;;;;;;;;4984524;28;8867;-88
2021/08/03 10:18:56;;;;;;;;;6.20;5.40;;;;;;;;4997605;28;9037;-90
2021/08/03 10:21:30;;;;;;;;;7.00;5.60;;;;;;;;4985448;28;8863;-91
2021/08/03 10:24:01;;;;;;;;;6.00;6.00;;;;;;;;4986078;28;8911;-90
2021/08/03 10:26:29;;;;;;;;;6.00;6.00;;;;;;;;4967726;28;8859;-90
2021/08/03 10:29:22;;;;;;;;;5.20;5.20;;;;;;;;4937775;28;8913;-92
2021/08/03 10:31:50;;;;;;;;;8.00;5.80;;;;;;;;4962476;28;8834;-92
2021/08/03 10:34:52;;;;;;;;;4.60;4.60;;;;;;;;4971990;28;8852;-91
2021/08/03 10:37:24;;;;;;;;;5.40;5.40;;;;;;;;4953125;28;8854;-93
2021/08/03 10:39:53;;;;;;;;;6.40;5.60;;;;;;;;4966106;28;8870;-89
2021/08/03 10:42:23;;;;;;;;;7.20;7.20;;;;;;;;4964455;28;8932;-91
2021/08/03 10:44:51;;;;;;;;;9.00;6.00;;;;;;;;4965764;28;8879;-89
2021/08/03 10:47:47;;;;;;;;;9.40;7.60;;;;;;;;4948939;28;8881;-91
2021/08/03 10:50:17;;;;;;;;;6.80;6.80;;;;;;;;4964942;28;8874;-92
2021/08/03 10:52:53;;;;;;;;;5.60;5.60;;;;;;;;4966192;28;8874;-88
2021/08/03 10:55:37;;;;;;;;;6.00;6.00;;;;;;;;4965143;28;8971;-91
2021/08/03 10:58:28;;;;;;;;;5.20;5.20;;;;;;;;4973202;28;8894;-90
2021/08/03 11:00:57;;;;;;;;;6.00;6.00;;;;;;;;4965270;28;8823;-91
2021/08/03 11:03:43;;;;;;;;;6.20;5.80;;;;;;;;4965050;28;9005;-90
2021/08/03 11:06:36;;;;;;;;;5.20;5.20;;;;;;;;4954796;28;8867;-89
2021/08/03 11:09:34;;;;;;;;;5.80;5.80;;;;;;;;4972723;28;8896;-90
2021/08/03 11:12:40;;;;;;;;;6.00;6.00;;;;;;;;4964594;28;8957;-91
2021/08/03 11:15:37;;;;;;;;;4.80;4.80;;;;;;;;4960409;28;8993;-91
2021/08/03 11:18:07;;;;;;;;;7.80;7.00;;;;;;;;4965744;28;8859;-91
2021/08/03 11:21:10;;;;;;;;;4.20;4.20;;;;;;;;4942559;28;8950;-91
2021/08/03 11:24:12;;;;;;;;;4.20;4.20;;;;;;;;4967759;28;8882;-90
2021/08/03 11:26:49;;;;;;;;;7.00;5.40;;;;;;;;4975069;28;8980;-90
2021/08/03 11:29:18;;;;;;;;;3.00;3.00;;;;;;;;4983074;28;8875;-86
2021/08/03 11:31:48;;;;;;;;;5.20;5.20;;;;;;;;4983468;28;8832;-89
2021/08/03 11:34:18;;;;;;;;;4.80;4.80;;;;;;;;5050766;28;8872;-89
2021/08/03 11:37:14;;;;;;;;;3.60;3.60;;;;;;;;4985407;28;8863;-84
2021/08/03 11:39:50;;;;;;;;;5.80;4.00;;;;;;;;4990075;28;9664;-87
2021/08/03 11:42:22;;;;;;;;;4.80;4.80;;;;;;;;4984835;28;8869;-91
2021/08/03 11:45:03;;;;;;;;;3.80;3.60;;;;;;;;4984947;28;8974;-90
2021/08/03 11:47:39;;;;;;;;;2.60;2.60;;;;;;;;4983876;28;8964;-88
2021/08/03 11:50:07;;;;;;;;;4.00;4.00;;;;;;;;4983728;28;8884;-88
2021/08/03 11:52:35;;;;;;;;;5.00;5.00;;;;;;;;4984255;28;8966;-88
2021/08/03 11:55:02;;;;;;;;;3.60;3.60;;;;;;;;5049088;28;8959;-89
2021/08/03 11:57:37;;;;;;;;;2.80;2.80;;;;;;;;5050627;28;8884;-90
2021/08/03 12:00:22;;;;;;;;;3.40;3.40;;;;;;;;4986748;28;8901;-86
2021/08/03 12:02:51;;;;;;;;;2.80;2.80;;;;;;;;4983609;28;8907;-89
2021/08/03 12:05:21;;;;;;;;;4.20;3.60;;;;;;;;4983759;28;8907;-91
2021/08/03 12:08:04;;;;;;;;;3.00;3.00;;;;;;;;4983493;28;8914;-89
2021/08/03 12:10:34;;;;;;;;;2.60;2.60;;;;;;;;4984116;28;9831;-92
2021/08/03 12:13:03;;;;;;;;;2.20;2.20;;;;;;;;4982874;28;8885;-90
2021/08/03 12:15:31;;;;;;;;;2.60;2.60;;;;;;;;5051539;28;8894;-88
2021/08/03 12:18:05;;;;;;;;;3.40;3.40;;;;;;;;4981079;28;8875;-91
2021/08/03 12:20:41;;;;;;;;;2.00;2.00;;;;;;;;5049568;28;8906;-92
2021/08/03 12:23:14;;;;;;;;;4.00;4.00;;;;;;;;4984146;28;8909;-89
2021/08/03 12:25:46;;;;;;;;;2.00;2.00;;;;;;;;4982100;28;8876;-90
2021/08/03 12:28:30;;;;;;;;;2.20;2.20;;;;;;;;4976257;28;8872;-90
2021/08/03 12:30:58;;;;;;;;;2.40;2.40;;;;;;;;4983841;28;8832;-90
2021/08/03 12:33:30;;;;;;;;;4.00;4.00;;;;;;;;4990605;28;9378;-91
2021/08/03 12:36:02;;;;;;;;;4.00;3.40;;;;;;;;5050303;28;8872;-92
2021/08/03 12:38:29;;;;;;;;;4.00;4.00;;;;;;;;4981832;28;8883;-91
2021/08/03 12:40:58;;;;;;;;;3.00;3.00;;;;;;;;5049821;28;8883;-92
2021/08/03 12:43:39;;;;;;;;;4.40;4.40;;;;;;;;4982109;28;8913;-89
2021/08/03 12:46:06;;;;;;;;;4.40;4.40;;;;;;;;4983324;28;8915;-87
2021/08/03 12:48:34;;;;;;;;;3.60;3.60;;;;;;;;4982989;28;9477;-91
2021/08/03 12:51:02;;;;;;;;;3.00;3.00;;;;;;;;5049597;28;8917;-89
2021/08/03 12:53:31;;;;;;;;;3.00;3.00;;;;;;;;4982821;28;8851;-88
2021/08/03 12:56:16;;;;;;;;;4.80;4.80;;;;;;;;4981869;28;8895;-89
2021/08/03 12:58:45;;;;;;;;;3.60;3.60;;;;;;;;4965975;28;8843;-90
2021/08/03 13:01:15;;;;;;;;;2.00;2.00;;;;;;;;4974552;28;8824;-88
2021/08/03 13:03:42;;;;;;;;;2.00;2.00;;;;;;;;4982561;28;8907;-89
2021/08/03 13:06:10;;;;;;;;;3.80;3.80;;;;;;;;4986120;28;8871;-87
2021/08/03 13:08:37;;;;;;;;;3.00;3.00;;;;;;;;4995043;28;8887;-87
2021/08/03 13:11:05;;;;;;;;;3.80;3.80;;;;;;;;4986175;28;8863;-89
2021/08/03 13:13:33;;;;;;;;;5.00;3.20;;;;;;;;4985190;28;8879;-89
2021/08/03 13:16:01;;;;;;;;;3.40;3.40;;;;;;;;4986173;28;9526;-89
2021/08/03 13:18:30;;;;;;;;;4.00;4.00;;;;;;;;4986548;28;9921;-90
2021/08/03 13:20:58;;;;;;;;;2.20;2.20;;;;;;;;5052289;28;8888;-88
2021/08/03 13:23:25;;;;;;;;;3.80;3.20;;;;;;;;4987575;28;8859;-92
2021/08/03 13:25:53;;;;;;;;;4.00;4.00;;;;;;;;4987533;28;8903;-91
2021/08/03 13:28:20;;;;;;;;;5.00;5.00;;;;;;;;5002957;28;8859;-87
2021/08/03 13:30:47;;;;;;;;;5.20;3.80;;;;;;;;4983591;28;8854;-91
2021/08/03 13:33:16;;;;;;;;;5.20;4.00;;;;;;;;4986561;28;8905;-94
2021/08/03 13:35:43;;;;;;;;;4.40;3.40;;;;;;;;5055620;28;9665;-92
2021/08/03 13:38:11;;;;;;;;;3.80;3.80;;;;;;;;4980342;28;8860;-90
2021/08/03 13:40:38;;;;;;;;;6.20;5.00;;;;;;;;5043850;28;8867;-86
2021/08/03 13:43:05;;;;;;;;;5.60;4.00;;;;;;;;5052802;28;8879;-87
2021/08/03 13:45:32;;;;;;;;;4.20;4.20;;;;;;;;4986071;28;8894;-89
2021/08/03 13:48:00;;;;;;;;;2.60;2.60;;;;;;;;4985623;28;9002;-89
2021/08/03 13:50:29;;;;;;;;;4.00;3.80;;;;;;;;5052814;28;9700;-89
2021/08/03 13:52:56;;;;;;;;;2.20;2.20;;;;;;;;5051291;28;8889;-86
2021/08/03 13:55:23;;;;;;;;;3.40;3.40;;;;;;;;4985435;28;9006;-89
2021/08/03 13:57:50;;;;;;;;;3.00;3.00;;;;;;;;4985453;28;8896;-90
2021/08/03 14:00:18;;;;;;;;;3.60;3.60;;;;;;;;4984957;28;8901;-91
2021/08/03 14:02:45;;;;;;;;;4.00;4.00;;;;;;;;5058634;28;10057;-88
2021/08/03 14:05:13;;;;;;;;;3.20;3.20;;;;;;;;5037251;28;8867;-87
2021/08/03 14:07:41;;;;;;;;;4.00;4.00;;;;;;;;4985389;28;8880;-89
2021/08/03 14:10:10;;;;;;;;;3.00;3.00;;;;;;;;4984597;28;9002;-89
2021/08/03 14:12:37;;;;;;;;;3.80;3.80;;;;;;;;4985336;28;8899;-88
2021/08/03 14:15:05;;;;;;;;;3.40;3.40;;;;;;;;4987106;28;8873;-88
2021/08/03 14:17:32;;;;;;;;;4.20;3.00;;;;;;;;4991940;28;9070;-90
2021/08/03 14:19:59;;;;;;;;;2.20;2.20;;;;;;;;4972795;28;9001;-88
2021/08/03 14:22:26;;;;;;;;;3.00;3.00;;;;;;;;4984014;28;8918;-88
2021/08/03 14:24:55;;;;;;;;;3.80;3.80;;;;;;;;4985174;28;9000;-90
2021/08/03 14:27:22;;;;;;;;;3.00;3.00;;;;;;;;4973442;28;8891;-91
2021/08/03 14:29:50;;;;;;;;;3.40;3.40;;;;;;;;4985226;28;8922;-89
2021/08/03 14:32:17;;;;;;;;;3.00;3.00;;;;;;;;4978265;28;8991;-88
2021/08/03 14:34:44;;;;;;;;;3.40;3.40;;;;;;;;4986315;28;8965;-84
2021/08/03 14:37:12;;;;;;;;;2.60;2.60;;;;;;;;5053836;28;9629;-84
2021/08/03 14:39:39;;;;;;;;;12.20;11.40;;;;;;;;4986062;28;9796;-89
2021/08/03 14:42:08;;;;;;;;;16.80;16.00;;;;;;;;5051956;28;8893;-87
2021/08/03 14:44:35;;;;;;;;;12.60;11.40;;;;;;;;4983686;28;8879;-89
2021/08/03 14:47:03;;;;;;;;;6.80;6.80;;;;;;;;5051113;28;8922;-90
2021/08/03 14:49:30;;;;;;;;;5.20;5.00;;;;;;;;4995906;28;8901;-88
2021/08/03 14:51:58;;;;;;;;;3.40;3.40;;;;;;;;5061771;28;8930;-90
2021/08/03 14:54:25;;;;;;;;;2.60;2.40;;;;;;;;4990027;28;8870;-88
2021/08/03 14:56:53;;;;;;;;;2.80;2.80;;;;;;;;4990266;28;8968;-91
2021/08/03 14:59:21;;;;;;;;;4.00;4.00;;;;;;;;4991190;28;8885;-88
2021/08/03 15:01:49;;;;;;;;;3.00;3.00;;;;;;;;4989901;28;8844;-86
2021/08/03 15:04:16;;;;;;;;;3.00;3.00;;;;;;;;4991565;28;9774;-88
2021/08/03 15:06:44;;;;;;;;;5.20;3.00;;;;;;;;4991686;28;9026;-91
2021/08/03 15:09:11;;;;;;;;;1.00;1.00;;;;;;;;4992078;28;8883;-91
2021/08/03 15:11:39;;;;;;;;;4.80;4.80;;;;;;;;5058785;28;8905;-84
2021/08/03 15:14:06;;;;;;;;;4.40;4.40;;;;;;;;4991033;28;8970;-86